Airfield :
LOGIN :

Register | Disclaimer

   EN    FR    IT 

 










Legend :    VFR   Marginal VFR   IFR   Intensive IFR   Very Intensive IFR
Visi :
Ceiling :
>= 8 km
>= 3000ft
5 to 8 km
1000 to 3000 ft
1500m to 5 km
500 to 1000 ft
800 to 1500m
200 to 500 ft
< 800m
< 200 ft
Symbols :   Thunderstorms  Fog  Heavy snow  Heavy precipitations  Wind > 20 kt
SIGMETs :     Misc.  Thunderstorms  Icing  Turbulence  Mountain Waves  Volcanic Ashes






- Airport Elevation : 459 ft
- IATA code : CER


LFRC - Cherbourg / Maupertus

CURRENT METAR :
  • 110000Z AUTO 26008KT 9999 FEW030 BKN042 OVC094 08/06 Q1011

EXPIRED METARs :
  • 102330Z AUTO 26010KT 9999 FEW030 SCT074 OVC084 08/06 Q1012
  • 102300Z AUTO 26011KT 9999 ///TCU 08/06 Q1011
  • 102230Z AUTO 27015KT 9999 -RA FEW020/// SCT034/// BKN047/// ///TCU 08/07 Q1011
  • 102200Z AUTO 28014KT 7000 RA FEW009/// OVC060/// ///CB 08/07 Q1011
  • 102130Z AUTO 27013KT 9999 -RA FEW011/// BKN027/// BKN043/// ///TCU 08/07 Q1011

Expired Forecast.



MET'MAP, your aeronautical weather chart ! - Copyright ORBIFLY December 2007 - Disclaimer

ORBIFLY MET'MAP TEAM :

Programming & Development : Alexandra Zaïnal
Concept & original design : Baudouin d'Aumeries
Assistance for programming : Marc-Olivier Méhu
Technical & hardware support : Manuel Goepfert

Contact : metmap@orbifly.com




SOURCES & CREDITS :

   NOAA